createdAt,value
2022-11-16T00:02:24.325Z,5.66
2022-11-16T00:05:32.960Z,5.53
2022-11-16T00:08:44.031Z,5.36
2022-11-16T00:11:54.488Z,5.30
2022-11-16T00:15:04.570Z,5.32
2022-11-16T00:18:13.028Z,5.36
2022-11-16T00:21:21.314Z,5.44
2022-11-16T00:24:29.577Z,5.49
2022-11-16T00:27:37.923Z,5.50
2022-11-16T00:30:47.918Z,5.58
2022-11-16T00:33:56.137Z,5.59
2022-11-16T00:37:04.585Z,5.61
2022-11-16T00:40:14.034Z,5.61
2022-11-16T00:43:22.421Z,5.50
2022-11-16T00:46:32.551Z,5.58
2022-11-16T00:49:40.780Z,5.66
2022-11-16T00:52:49.011Z,5.72
2022-11-16T00:55:57.425Z,5.79
2022-11-16T00:59:06.341Z,5.79
2022-11-16T01:02:17.019Z,5.82
2022-11-16T01:05:25.703Z,5.84
2022-11-16T01:08:36.315Z,5.99
2022-11-16T01:12:02.717Z,6.04
2022-11-16T01:15:12.265Z,6.17
2022-11-16T01:18:22.168Z,6.29
2022-11-16T01:21:30.556Z,6.34
2022-11-16T01:24:38.904Z,6.41
2022-11-16T01:27:47.216Z,6.37
2022-11-16T01:31:06.319Z,6.44
2022-11-16T01:34:19.146Z,6.52
2022-11-16T01:37:28.520Z,6.50
2022-11-16T01:40:38.211Z,6.60
2022-11-16T01:43:59.858Z,6.59
2022-11-16T01:47:16.203Z,6.69
2022-11-16T01:50:26.949Z,6.70
2022-11-16T01:53:36.113Z,6.57
2022-11-16T01:56:48.251Z,6.53
2022-11-16T02:00:11.341Z,6.50
2022-11-16T02:03:24.426Z,6.58
2022-11-16T02:06:57.860Z,6.62
2022-11-16T02:10:21.482Z,6.44
2022-11-16T02:13:46.779Z,6.43
2022-11-16T02:17:05.771Z,6.40
2022-11-16T02:20:52.628Z,6.51
2022-11-16T02:24:41.558Z,6.61
2022-11-16T02:28:14.776Z,6.50
2022-11-16T02:31:31.954Z,6.47
2022-11-16T02:34:46.384Z,6.55
2022-11-16T02:38:01.394Z,6.51
2022-11-16T02:41:16.522Z,6.59
2022-11-16T02:44:33.924Z,6.64
2022-11-16T02:47:47.120Z,6.56
2022-11-16T02:50:58.103Z,6.47
2022-11-16T02:54:14.878Z,6.36
2022-11-16T02:57:52.886Z,6.40
2022-11-16T03:01:07.500Z,6.58
2022-11-16T03:04:28.456Z,6.53
2022-11-16T03:07:53.283Z,6.34
2022-11-16T03:11:23.669Z,6.28
2022-11-16T03:14:43.046Z,6.13
2022-11-16T03:17:52.385Z,6.11
2022-11-16T03:21:14.879Z,6.20
2022-11-16T03:24:25.132Z,6.06
2022-11-16T03:27:45.727Z,6.23
2022-11-16T03:31:02.398Z,6.18
2022-11-16T03:34:20.079Z,6.16
2022-11-16T03:37:33.010Z,6.11
2022-11-16T03:40:45.420Z,6.04
2022-11-16T03:43:56.336Z,5.93
2022-11-16T03:47:05.258Z,6.07
2022-11-16T03:50:15.016Z,6.17
2022-11-16T03:53:27.133Z,6.22
2022-11-16T03:56:35.685Z,6.19
2022-11-16T03:59:45.372Z,6.10
2022-11-16T04:02:53.768Z,6.08
2022-11-16T04:06:21.310Z,6.08
2022-11-16T04:09:49.495Z,5.99
2022-11-16T04:13:16.766Z,6.03
2022-11-16T04:16:42.842Z,6.06
2022-11-16T04:20:08.704Z,5.89
2022-11-16T04:23:36.225Z,5.88
2022-11-16T04:27:09.003Z,5.63
2022-11-16T04:30:18.107Z,5.59
2022-11-16T04:33:45.188Z,5.54
2022-11-16T04:37:13.785Z,5.60
2022-11-16T04:40:25.442Z,5.63
2022-11-16T04:43:35.719Z,5.69
2022-11-16T04:47:01.657Z,5.73
2022-11-16T04:50:10.874Z,5.78
2022-11-16T04:53:22.570Z,5.82
2022-11-16T04:56:38.077Z,5.90
2022-11-16T04:59:48.579Z,5.87
2022-11-16T05:03:01.015Z,6.05
2022-11-16T05:06:10.095Z,6.09
2022-11-16T05:09:20.230Z,6.13
2022-11-16T05:12:30.644Z,6.08
2022-11-16T05:15:46.921Z,6.07
2022-11-16T05:19:09.339Z,6.12
2022-11-16T05:22:18.475Z,6.15
2022-11-16T05:25:32.528Z,6.26
2022-11-16T05:28:45.601Z,6.24
2022-11-16T05:31:57.258Z,6.28
2022-11-16T05:35:07.304Z,6.36
2022-11-16T05:38:15.936Z,6.44
2022-11-16T05:41:28.088Z,6.45
2022-11-16T05:44:36.777Z,6.36
2022-11-16T05:47:47.251Z,6.37
2022-11-16T05:50:59.742Z,6.42
2022-11-16T05:54:12.665Z,6.44
2022-11-16T05:57:21.755Z,6.51
2022-11-16T06:00:30.176Z,6.54
2022-11-16T06:03:41.782Z,6.54
2022-11-16T06:06:50.419Z,6.56
2022-11-16T06:10:00.332Z,6.55
2022-11-16T06:13:09.021Z,6.56
2022-11-16T06:16:17.932Z,6.57
2022-11-16T06:19:32.149Z,6.65
2022-11-16T06:22:41.172Z,6.69
2022-11-16T06:25:55.179Z,6.57
2022-11-16T06:29:06.569Z,6.62
2022-11-16T06:32:16.205Z,6.80
2022-11-16T06:35:26.031Z,6.78
2022-11-16T06:38:35.158Z,6.84
2022-11-16T06:41:44.565Z,6.89
2022-11-16T06:44:54.393Z,6.90
2022-11-16T06:48:07.539Z,6.92
2022-11-16T06:51:17.478Z,6.99
2022-11-16T06:54:25.822Z,7.02
2022-11-16T06:57:35.554Z,7.05
2022-11-16T07:00:45.045Z,7.11
2022-11-16T07:03:54.248Z,7.14
2022-11-16T07:07:04.307Z,7.21
2022-11-16T07:10:15.625Z,7.11
2022-11-16T07:13:24.844Z,7.17
2022-11-16T07:16:35.678Z,7.27
2022-11-16T07:19:44.703Z,7.34
2022-11-16T07:22:54.484Z,7.42
2022-11-16T07:26:05.276Z,7.40
2022-11-16T07:29:22.782Z,7.39
2022-11-16T07:33:02.353Z,7.65
2022-11-16T07:36:42.754Z,7.83
2022-11-16T07:39:53.511Z,7.92
2022-11-16T07:43:03.101Z,7.97
2022-11-16T07:46:48.351Z,8.01
2022-11-16T07:49:57.874Z,8.12
2022-11-16T07:53:08.993Z,8.16
2022-11-16T07:56:19.326Z,8.24
2022-11-16T07:59:28.502Z,8.30
2022-11-16T08:02:37.164Z,8.36
2022-11-16T08:05:45.680Z,8.45
2022-11-16T08:08:58.292Z,8.53
2022-11-16T08:12:09.115Z,8.62
2022-11-16T08:15:18.405Z,8.74
2022-11-16T08:18:28.451Z,8.77
2022-11-16T08:21:37.580Z,8.88
2022-11-16T08:24:46.077Z,8.89
2022-11-16T08:27:56.227Z,8.93
2022-11-16T08:31:10.457Z,8.99
2022-11-16T08:34:19.888Z,8.97
2022-11-16T08:37:32.319Z,8.93
2022-11-16T08:40:41.030Z,8.97
2022-11-16T08:43:53.263Z,8.93
2022-11-16T08:47:03.158Z,8.91
2022-11-16T08:50:19.940Z,8.96
2022-11-16T08:53:28.233Z,8.94
2022-11-16T08:56:36.574Z,8.83
2022-11-16T08:59:47.427Z,8.93
2022-11-16T09:02:56.010Z,9.05
2022-11-16T09:06:04.207Z,9.04
2022-11-16T09:09:12.666Z,9.05
2022-11-16T09:12:20.995Z,9.15
2022-11-16T09:15:30.601Z,9.29
2022-11-16T09:18:39.127Z,9.38
2022-11-16T09:21:47.271Z,9.49
2022-11-16T09:24:55.450Z,9.61
2022-11-16T09:28:03.756Z,9.69
2022-11-16T09:31:14.762Z,9.67
2022-11-16T09:34:25.554Z,9.89
2022-11-16T09:37:33.748Z,10.01
2022-11-16T09:40:47.134Z,10.14
2022-11-16T09:44:07.138Z,10.24
2022-11-16T09:47:22.157Z,10.46
2022-11-16T09:50:45.467Z,10.58
2022-11-16T09:54:01.396Z,10.50
2022-11-16T09:57:16.085Z,10.61
2022-11-16T10:00:25.285Z,10.65
2022-11-16T10:03:47.423Z,10.60
2022-11-16T10:07:02.180Z,10.54
2022-11-16T10:10:14.795Z,10.60
2022-11-16T10:13:46.061Z,10.56
2022-11-16T10:17:05.567Z,10.60
2022-11-16T10:20:38.476Z,10.58
2022-11-16T10:24:25.124Z,10.48
2022-11-16T10:28:10.075Z,10.30
2022-11-16T10:31:29.583Z,10.32
2022-11-16T10:34:50.483Z,10.32
2022-11-16T10:38:03.924Z,10.26
2022-11-16T10:41:23.947Z,10.41
2022-11-16T10:44:41.990Z,10.43
2022-11-16T10:47:59.334Z,10.38
2022-11-16T10:51:09.853Z,10.26
2022-11-16T10:54:20.144Z,10.14
2022-11-16T10:57:55.931Z,10.13
2022-11-16T11:01:04.322Z,10.13
2022-11-16T11:04:17.906Z,10.19
2022-11-16T11:07:33.760Z,10.24
2022-11-16T11:10:44.052Z,10.26
2022-11-16T11:14:10.291Z,10.33
2022-11-16T11:17:19.300Z,10.44
2022-11-16T11:20:27.500Z,10.61
2022-11-16T11:24:10.641Z,10.71
2022-11-16T11:27:33.553Z,10.90
2022-11-16T11:30:41.878Z,11.18
2022-11-16T11:33:55.070Z,11.44
2022-11-16T11:37:07.878Z,11.37
2022-11-16T11:40:22.770Z,11.24
2022-11-16T11:43:35.051Z,11.25
2022-11-16T11:47:50.424Z,11.37
2022-11-16T11:50:25.782Z,11.46
2022-11-16T11:53:48.418Z,11.46
2022-11-16T11:56:56.707Z,11.40
2022-11-16T12:00:09.181Z,11.38
2022-11-16T12:03:53.652Z,11.33
2022-11-16T12:07:16.123Z,11.36
2022-11-16T12:10:39.767Z,11.38
2022-11-16T12:14:06.499Z,11.45
2022-11-16T12:17:29.055Z,11.45
2022-11-16T12:20:54.540Z,11.44
2022-11-16T12:24:35.692Z,11.40
2022-11-16T12:27:57.836Z,11.37
2022-11-16T12:31:39.890Z,11.34
2022-11-16T12:35:09.412Z,11.29
2022-11-16T12:38:40.859Z,11.16
2022-11-16T12:42:29.239Z,11.15
2022-11-16T12:45:59.859Z,10.97
2022-11-16T12:50:04.087Z,10.79
2022-11-16T12:53:39.529Z,10.80
2022-11-16T12:57:01.081Z,10.77
2022-11-16T13:00:12.935Z,10.67
2022-11-16T13:03:33.696Z,10.58
2022-11-16T13:06:53.456Z,10.59
2022-11-16T13:10:13.847Z,10.55
2022-11-16T13:13:36.338Z,10.64
2022-11-16T13:16:47.485Z,10.77
2022-11-16T13:20:19.643Z,11.08
2022-11-16T13:23:46.887Z,11.57
2022-11-16T13:27:16.869Z,11.57
2022-11-16T13:30:34.605Z,11.53
2022-11-16T13:33:51.344Z,11.60
2022-11-16T13:37:02.256Z,11.65
2022-11-16T13:40:30.009Z,11.78
2022-11-16T13:43:38.395Z,11.94
2022-11-16T13:46:57.320Z,11.96
2022-11-16T13:50:18.531Z,12.04
2022-11-16T13:57:08.216Z,11.89
2022-11-16T14:00:25.291Z,11.64
2022-11-16T14:03:39.299Z,11.61
2022-11-16T14:07:00.759Z,11.49
2022-11-16T14:10:09.195Z,11.40
2022-11-16T14:13:40.684Z,11.24
2022-11-16T14:16:52.915Z,11.08
2022-11-16T14:20:01.138Z,10.90
2022-11-16T14:23:25.066Z,10.80
2022-11-16T14:26:51.542Z,10.75
2022-11-16T14:30:16.638Z,10.67
2022-11-16T14:33:34.195Z,10.53
2022-11-16T14:36:46.115Z,10.51
2022-11-16T14:40:02.810Z,10.47
2022-11-16T14:43:22.897Z,10.60
2022-11-16T14:46:39.378Z,10.52
2022-11-16T14:49:49.197Z,10.40
2022-11-16T14:53:04.606Z,10.43
2022-11-16T14:56:15.386Z,10.56
2022-11-16T14:59:23.596Z,10.50
2022-11-16T15:02:34.285Z,10.46
2022-11-16T15:05:45.926Z,10.09
2022-11-16T15:09:00.401Z,9.87
2022-11-16T15:12:35.117Z,9.94
2022-11-16T15:15:47.382Z,10.02
2022-11-16T15:19:02.928Z,10.00
2022-11-16T15:22:18.888Z,9.83
2022-11-16T15:25:32.407Z,9.89
2022-11-16T15:28:45.795Z,9.90
2022-11-16T15:31:57.499Z,9.87
2022-11-16T15:35:08.422Z,9.83
2022-11-16T15:38:22.003Z,9.89
2022-11-16T15:41:30.316Z,9.85
2022-11-16T15:44:39.222Z,9.76
2022-11-16T15:47:48.408Z,9.69
2022-11-16T15:51:05.813Z,9.56
2022-11-16T15:54:22.326Z,9.43
2022-11-16T15:57:30.683Z,9.30
2022-11-16T16:00:39.582Z,9.24
2022-11-16T16:03:58.802Z,9.11
2022-11-16T16:07:10.289Z,9.03
2022-11-16T16:10:26.641Z,9.09
2022-11-16T16:13:38.354Z,8.80
2022-11-16T16:16:52.952Z,8.55
2022-11-16T16:20:04.019Z,8.36
2022-11-16T16:23:17.318Z,8.15
2022-11-16T16:26:25.517Z,7.94
2022-11-16T16:29:33.658Z,7.86
2022-11-16T16:32:41.920Z,7.87
2022-11-16T16:35:51.005Z,7.66
2022-11-16T16:39:00.587Z,7.51
2022-11-16T16:42:18.131Z,7.46
2022-11-16T16:45:37.228Z,7.31
2022-11-16T16:48:45.456Z,7.17
2022-11-16T16:51:53.625Z,7.11
2022-11-16T16:55:03.230Z,7.07
2022-11-16T16:58:13.819Z,6.96
2022-11-16T17:01:22.069Z,6.84
2022-11-16T17:04:30.308Z,6.76
2022-11-16T17:07:40.760Z,6.73
2022-11-16T17:10:52.575Z,6.63
2022-11-16T17:14:01.070Z,6.41
2022-11-16T17:17:10.401Z,6.30
2022-11-16T17:20:18.813Z,6.26
2022-11-16T17:23:30.261Z,6.20
2022-11-16T17:26:41.126Z,6.18
2022-11-16T17:29:49.332Z,6.06
2022-11-16T17:32:57.514Z,6.06
2022-11-16T17:36:07.879Z,5.93
2022-11-16T17:39:16.721Z,5.86
2022-11-16T17:42:26.301Z,5.76
2022-11-16T17:45:34.456Z,5.63
2022-11-16T17:48:45.222Z,5.53
2022-11-16T17:51:53.387Z,5.42
2022-11-16T17:55:01.689Z,5.33
2022-11-16T17:58:11.139Z,5.40
2022-11-16T18:01:20.477Z,5.38
2022-11-16T18:04:28.825Z,5.45
2022-11-16T18:07:38.463Z,5.46
2022-11-16T18:10:46.623Z,5.41
2022-11-16T18:13:58.283Z,5.41
2022-11-16T18:17:06.720Z,5.48
2022-11-16T18:20:15.254Z,5.36
2022-11-16T18:23:23.413Z,5.13
2022-11-16T18:26:31.677Z,5.09
2022-11-16T18:29:41.279Z,5.06
2022-11-16T18:32:50.414Z,5.01
2022-11-16T18:35:58.593Z,4.97
2022-11-16T18:39:09.031Z,5.04
2022-11-16T18:42:17.298Z,4.96
2022-11-16T18:45:27.166Z,4.86
2022-11-16T18:48:35.999Z,4.82
2022-11-16T18:51:44.446Z,4.81
2022-11-16T18:54:52.703Z,4.81
2022-11-16T18:58:01.002Z,4.74
2022-11-16T19:01:14.340Z,4.66
2022-11-16T19:04:22.812Z,4.68
2022-11-16T19:07:31.216Z,4.70
2022-11-16T19:10:40.218Z,4.68
2022-11-16T19:13:55.054Z,4.69
2022-11-16T19:17:05.270Z,4.61
2022-11-16T19:20:15.104Z,4.57
2022-11-16T19:23:23.377Z,4.47
2022-11-16T19:26:31.790Z,4.39
2022-11-16T19:29:40.495Z,4.39
2022-11-16T19:32:50.187Z,4.31
2022-11-16T19:36:00.693Z,4.39
2022-11-16T19:39:09.118Z,4.32
2022-11-16T19:42:17.315Z,4.34
2022-11-16T19:45:25.495Z,4.31
2022-11-16T19:48:35.818Z,4.30
2022-11-16T19:51:43.996Z,4.23
2022-11-16T19:54:52.292Z,4.15
2022-11-16T19:58:00.675Z,4.16
2022-11-16T20:01:12.910Z,4.05
2022-11-16T20:04:23.016Z,4.02
2022-11-16T20:07:32.212Z,4.00
2022-11-16T20:10:40.485Z,3.98
2022-11-16T20:13:53.126Z,3.93
2022-11-16T20:17:02.368Z,3.79
2022-11-16T20:20:13.203Z,3.66
2022-11-16T20:23:21.614Z,3.64
2022-11-16T20:26:34.031Z,3.56
2022-11-16T20:29:43.382Z,3.49
2022-11-16T20:32:52.285Z,3.64
2022-11-16T20:36:08.375Z,3.70
2022-11-16T20:39:20.084Z,3.46
2022-11-16T20:42:31.304Z,3.38
2022-11-16T20:45:39.719Z,3.27
2022-11-16T20:48:48.310Z,3.23
2022-11-16T20:51:58.618Z,3.18
2022-11-16T20:55:08.168Z,3.22
2022-11-16T20:58:22.411Z,3.16
2022-11-16T21:01:32.231Z,3.15
2022-11-16T21:04:40.455Z,3.12
2022-11-16T21:07:50.348Z,3.10
2022-11-16T21:10:58.908Z,3.09
2022-11-16T21:14:18.795Z,3.25
2022-11-16T21:17:27.107Z,3.13
2022-11-16T21:20:35.413Z,3.01
2022-11-16T21:23:51.394Z,3.00
2022-11-16T21:26:59.788Z,2.94
2022-11-16T21:30:09.592Z,2.94
2022-11-16T21:33:18.015Z,3.06
2022-11-16T21:36:28.497Z,3.05
2022-11-16T21:39:38.451Z,3.13
2022-11-16T21:42:47.459Z,3.09
2022-11-16T21:46:03.990Z,3.10
2022-11-16T21:49:12.432Z,3.12
2022-11-16T21:52:20.719Z,3.10
2022-11-16T21:55:30.607Z,3.26
2022-11-16T21:58:40.494Z,3.06
2022-11-16T22:02:01.123Z,3.11
2022-11-16T22:05:28.704Z,3.04
2022-11-16T22:08:37.048Z,2.99
2022-11-16T22:11:46.842Z,2.99
2022-11-16T22:14:55.386Z,2.92
2022-11-16T22:18:04.345Z,2.95
2022-11-16T22:21:13.094Z,2.96
2022-11-16T22:24:21.249Z,2.95
2022-11-16T22:27:30.846Z,2.96
2022-11-16T22:30:38.979Z,2.77
2022-11-16T22:33:47.139Z,2.72
2022-11-16T22:36:55.442Z,2.66
2022-11-16T22:40:04.095Z,2.64
2022-11-16T22:43:14.980Z,2.65
2022-11-16T22:46:23.283Z,2.77
2022-11-16T22:49:31.529Z,2.75
2022-11-16T22:52:39.769Z,2.77
2022-11-16T22:55:47.943Z,2.80
2022-11-16T22:58:58.302Z,2.78
2022-11-16T23:02:06.541Z,2.74
2022-11-16T23:05:14.814Z,2.68
2022-11-16T23:08:24.916Z,2.72
2022-11-16T23:11:50.875Z,2.67
2022-11-16T23:15:17.973Z,2.52
2022-11-16T23:18:26.216Z,2.46
2022-11-16T23:21:52.137Z,2.43
2022-11-16T23:25:18.392Z,2.49
2022-11-16T23:28:27.218Z,2.41
2022-11-16T23:31:37.092Z,2.37
2022-11-16T23:34:45.274Z,2.43
2022-11-16T23:37:57.883Z,2.41
2022-11-16T23:41:20.592Z,2.41
2022-11-16T23:44:28.970Z,2.37
2022-11-16T23:47:38.810Z,2.30
2022-11-16T23:50:47.801Z,2.29
2022-11-16T23:53:56.498Z,2.17
2022-11-16T23:57:05.404Z,2.09
